createdAt,value
2018-08-06T00:01:18.574Z,9.43
2018-08-06T00:03:48.420Z,9.63
2018-08-06T00:06:18.400Z,9.60
2018-08-06T00:08:48.222Z,9.43
2018-08-06T00:11:17.891Z,9.60
2018-08-06T00:13:47.659Z,9.27
2018-08-06T00:16:17.404Z,10.60
2018-08-06T00:18:47.067Z,9.20
2018-08-06T00:21:16.786Z,9.17
2018-08-06T00:23:46.787Z,9.27
2018-08-06T00:26:16.608Z,9.53
2018-08-06T00:28:46.307Z,9.53
2018-08-06T00:31:16.231Z,9.53
2018-08-06T00:33:45.937Z,9.80
2018-08-06T00:36:15.624Z,9.27
2018-08-06T00:38:45.295Z,8.90
2018-08-06T00:41:15.592Z,9.10
2018-08-06T00:43:45.405Z,9.63
2018-08-06T00:46:15.138Z,9.93
2018-08-06T00:48:45.033Z,8.80
2018-08-06T00:51:14.823Z,9.40
2018-08-06T00:53:44.541Z,9.20
2018-08-06T00:56:14.283Z,9.10
2018-08-06T00:58:44.169Z,8.17
2018-08-06T01:01:14.055Z,8.47
2018-08-06T01:03:44.037Z,8.80
2018-08-06T01:06:13.984Z,8.20
2018-08-06T01:08:44.699Z,9.00
2018-08-06T01:11:14.707Z,10.07
2018-08-06T01:13:44.919Z,10.50
2018-08-06T01:16:14.903Z,10.93
2018-08-06T01:18:45.167Z,10.43
2018-08-06T01:21:15.145Z,9.53
2018-08-06T01:23:45.000Z,10.00
2018-08-06T01:26:14.723Z,10.93
2018-08-06T01:28:44.872Z,10.93
2018-08-06T01:31:15.285Z,10.60
2018-08-06T01:33:44.972Z,11.33
2018-08-06T01:36:14.842Z,11.17
2018-08-06T01:38:44.890Z,11.10
2018-08-06T01:41:15.056Z,11.30
2018-08-06T01:43:44.785Z,10.93
2018-08-06T01:46:14.565Z,10.33
2018-08-06T01:48:44.425Z,9.83
2018-08-06T01:51:14.349Z,10.90
2018-08-06T01:53:44.239Z,10.70
2018-08-06T01:56:14.289Z,10.07
2018-08-06T01:58:43.956Z,10.63
2018-08-06T02:01:13.856Z,9.93
2018-08-06T02:03:43.985Z,10.20
2018-08-06T02:06:13.839Z,9.80
2018-08-06T02:08:43.794Z,10.37
2018-08-06T02:11:13.633Z,9.83
2018-08-06T02:13:43.380Z,10.57
2018-08-06T02:16:13.105Z,10.90
2018-08-06T02:18:42.863Z,10.50
2018-08-06T02:21:13.104Z,10.80
2018-08-06T02:23:43.340Z,10.83
2018-08-06T02:26:13.184Z,12.30
2018-08-06T02:28:43.026Z,11.97
2018-08-06T02:31:12.802Z,11.97
2018-08-06T02:33:42.476Z,11.93
2018-08-06T02:36:12.359Z,11.67
2018-08-06T02:38:42.068Z,11.40
2018-08-06T02:41:11.912Z,11.37
2018-08-06T02:43:41.947Z,11.60
2018-08-06T02:46:11.871Z,11.87
2018-08-06T02:48:41.624Z,11.67
2018-08-06T02:51:11.520Z,11.10
2018-08-06T02:53:41.887Z,12.17
2018-08-06T02:56:12.095Z,12.90
2018-08-06T02:58:41.871Z,12.10
2018-08-06T03:01:11.581Z,12.37
2018-08-06T03:03:41.520Z,12.63
2018-08-06T03:06:11.471Z,11.50
2018-08-06T03:08:41.201Z,12.03
2018-08-06T03:11:11.032Z,12.07
2018-08-06T03:13:41.136Z,12.43
2018-08-06T03:16:11.127Z,11.73
2018-08-06T03:18:42.093Z,11.70
2018-08-06T03:21:12.211Z,12.13
2018-08-06T03:23:41.989Z,12.50
2018-08-06T03:26:11.788Z,12.10
2018-08-06T03:28:41.636Z,13.17
2018-08-06T03:31:11.409Z,13.37
2018-08-06T03:33:41.159Z,12.60
2018-08-06T03:36:10.955Z,12.77
2018-08-06T03:38:41.851Z,13.07
2018-08-06T03:41:11.677Z,13.27
2018-08-06T03:43:41.415Z,13.20
2018-08-06T03:46:11.195Z,12.47
2018-08-06T03:48:41.064Z,10.10
2018-08-06T03:51:10.771Z,9.90
2018-08-06T03:53:40.640Z,8.67
2018-08-06T03:56:10.460Z,9.67
2018-08-06T03:58:40.316Z,9.80
2018-08-06T04:01:10.171Z,11.27
2018-08-06T04:03:39.897Z,8.87
2018-08-06T04:06:09.732Z,7.80
2018-08-06T04:08:39.628Z,8.23
2018-08-06T04:11:09.496Z,7.70
2018-08-06T04:13:39.913Z,7.83
2018-08-06T04:16:09.755Z,9.23
2018-08-06T04:18:39.769Z,9.27
2018-08-06T04:21:09.552Z,8.87
2018-08-06T04:23:39.667Z,9.47
2018-08-06T04:26:09.820Z,8.90
2018-08-06T04:28:39.688Z,17.40
2018-08-06T04:31:09.588Z,10.20
2018-08-06T04:33:39.446Z,9.87
2018-08-06T04:36:09.636Z,11.00
2018-08-06T04:38:39.639Z,9.90
2018-08-06T04:41:09.747Z,9.50
2018-08-06T04:43:39.494Z,10.70
2018-08-06T04:46:09.694Z,10.40
2018-08-06T04:48:39.565Z,9.90
2018-08-06T04:51:09.692Z,9.80
2018-08-06T04:53:38.288Z,9.73
2018-08-06T04:56:07.847Z,9.13
2018-08-06T04:58:38.152Z,8.73
2018-08-06T05:01:08.216Z,8.83
2018-08-06T05:03:37.915Z,9.63
2018-08-06T05:06:08.011Z,9.30
2018-08-06T05:08:38.279Z,9.97
2018-08-06T05:11:08.007Z,8.77
2018-08-06T05:13:37.780Z,8.53
2018-08-06T05:16:07.728Z,8.60
2018-08-06T05:18:37.711Z,9.23
2018-08-06T05:21:07.839Z,8.63
2018-08-06T05:23:51.907Z,8.73
2018-08-06T05:26:21.899Z,9.47
2018-08-06T05:28:53.032Z,9.00
2018-08-06T05:31:26.299Z,9.67
2018-08-06T05:33:57.023Z,18.47
2018-08-06T05:36:28.372Z,13.10
2018-08-06T05:38:58.596Z,9.20
2018-08-06T05:41:28.579Z,9.23
2018-08-06T05:43:58.667Z,8.23
2018-08-06T05:46:29.072Z,7.83
2018-08-06T05:48:59.484Z,8.70
2018-08-06T05:51:29.544Z,14.70
2018-08-06T05:53:59.512Z,9.27
2018-08-06T05:56:29.578Z,9.50
2018-08-06T05:58:59.536Z,9.20
2018-08-06T06:01:29.832Z,8.10
2018-08-06T06:03:59.912Z,9.13
2018-08-06T06:06:29.775Z,9.17
2018-08-06T06:09:00.712Z,8.50
2018-08-06T06:11:30.846Z,8.73
2018-08-06T06:14:01.143Z,8.43
2018-08-06T06:16:31.039Z,9.23
2018-08-06T06:19:01.309Z,8.97
2018-08-06T06:21:31.428Z,9.30
2018-08-06T06:24:01.508Z,7.57
2018-08-06T06:26:31.420Z,9.10
2018-08-06T06:29:02.671Z,8.90
2018-08-06T06:31:33.032Z,8.73
2018-08-06T06:34:03.668Z,8.93
2018-08-06T06:36:33.759Z,8.83
2018-08-06T06:39:04.464Z,9.13
2018-08-06T06:41:34.388Z,8.40
2018-08-06T06:44:04.647Z,9.00
2018-08-06T06:46:34.664Z,7.40
2018-08-06T06:49:05.689Z,6.83
2018-08-06T06:51:35.771Z,6.73
2018-08-06T06:54:06.313Z,6.40
2018-08-06T06:56:36.435Z,7.17
2018-08-06T06:59:06.632Z,7.67
2018-08-06T07:01:36.684Z,7.73
2018-08-06T07:04:07.090Z,7.27
2018-08-06T07:06:37.828Z,8.00
2018-08-06T07:09:10.911Z,7.27
2018-08-06T07:11:40.787Z,7.77
2018-08-06T07:14:10.925Z,8.03
2018-08-06T07:16:41.157Z,9.07
2018-08-06T07:19:11.645Z,7.67
2018-08-06T07:21:42.109Z,8.93
2018-08-06T07:24:12.060Z,7.80
2018-08-06T07:26:42.013Z,8.37
2018-08-06T07:29:12.036Z,7.83
2018-08-06T07:31:42.537Z,8.43
2018-08-06T07:34:13.253Z,9.03
2018-08-06T07:36:43.972Z,7.80
2018-08-06T07:39:14.532Z,7.83
2018-08-06T07:41:45.167Z,8.80
2018-08-06T07:44:15.625Z,7.73
2018-08-06T07:46:46.107Z,8.33
2018-08-06T07:49:16.613Z,8.07
2018-08-06T07:51:46.932Z,8.90
2018-08-06T07:54:17.151Z,7.83
2018-08-06T07:56:47.387Z,8.30
2018-08-06T07:59:17.395Z,7.73
2018-08-06T08:01:47.754Z,8.13
2018-08-06T08:04:18.227Z,7.20
2018-08-06T08:06:48.486Z,7.50
2018-08-06T08:09:18.652Z,7.37
2018-08-06T08:11:48.677Z,6.50
2018-08-06T08:14:18.667Z,5.40
2018-08-06T08:16:48.842Z,5.90
2018-08-06T08:19:19.135Z,6.30
2018-08-06T08:21:49.322Z,6.10
2018-08-06T08:24:19.200Z,5.80
2018-08-06T08:26:49.043Z,5.60
2018-08-06T08:29:18.999Z,6.53
2018-08-06T08:31:49.675Z,5.07
2018-08-06T08:34:20.839Z,5.03
2018-08-06T08:36:51.285Z,5.00
2018-08-06T08:39:21.427Z,5.07
2018-08-06T08:41:52.017Z,5.03
2018-08-06T08:44:22.233Z,4.70
2018-08-06T08:46:52.402Z,4.93
2018-08-06T08:49:22.271Z,5.00
2018-08-06T08:51:52.509Z,4.83
2018-08-06T08:54:22.396Z,5.27
2018-08-06T08:56:53.276Z,4.93
2018-08-06T08:59:23.234Z,4.67
2018-08-06T09:01:53.460Z,4.93
2018-08-06T09:04:23.615Z,4.67
2018-08-06T09:06:54.134Z,4.20
2018-08-06T09:09:24.768Z,4.67
2018-08-06T09:11:54.931Z,4.90
2018-08-06T09:14:24.863Z,4.37
2018-08-06T09:16:54.895Z,4.50
2018-08-06T09:19:25.225Z,4.70
2018-08-06T09:21:55.121Z,4.70
2018-08-06T09:24:24.931Z,4.50
2018-08-06T09:26:55.113Z,4.63
2018-08-06T09:29:25.052Z,4.50
2018-08-06T09:31:55.784Z,4.60
2018-08-06T09:34:25.891Z,4.73
2018-08-06T09:36:55.948Z,4.70
2018-08-06T09:39:26.267Z,4.80
2018-08-06T09:41:56.883Z,4.37
2018-08-06T09:44:27.154Z,4.30
2018-08-06T09:46:57.515Z,4.50
2018-08-06T09:49:27.757Z,4.50
2018-08-06T09:51:58.373Z,4.40
2018-08-06T09:54:28.788Z,4.53
2018-08-06T09:56:59.135Z,4.83
2018-08-06T09:59:29.375Z,4.40
2018-08-06T10:02:00.464Z,4.83
2018-08-06T10:04:30.969Z,4.23
2018-08-06T10:07:00.976Z,5.20
2018-08-06T10:09:30.879Z,4.50
2018-08-06T10:12:01.034Z,5.47
2018-08-06T10:14:31.527Z,5.03
2018-08-06T10:17:01.872Z,4.77
2018-08-06T10:19:32.116Z,5.17
2018-08-06T10:22:02.121Z,4.13
2018-08-06T10:24:32.634Z,4.57
2018-08-06T10:27:02.724Z,4.47
2018-08-06T10:29:32.973Z,4.60
2018-08-06T10:32:03.012Z,4.67
2018-08-06T10:34:33.293Z,4.50
2018-08-06T10:37:03.175Z,4.60
2018-08-06T10:39:33.336Z,4.80
2018-08-06T10:42:03.412Z,4.50
2018-08-06T10:44:33.921Z,4.43
2018-08-06T10:47:03.965Z,4.77
2018-08-06T10:49:34.591Z,4.50
2018-08-06T10:52:05.370Z,4.70
2018-08-06T10:54:35.421Z,5.20
2018-08-06T10:57:05.415Z,4.90
2018-08-06T10:59:36.077Z,4.10
2018-08-06T11:02:06.803Z,4.37
2018-08-06T11:04:36.692Z,3.97
2018-08-06T11:07:07.864Z,4.77
2018-08-06T11:09:37.856Z,4.50
2018-08-06T11:12:08.169Z,4.30
2018-08-06T11:14:38.452Z,4.03
2018-08-06T11:17:08.647Z,4.70
2018-08-06T11:19:38.975Z,4.53
2018-08-06T11:22:12.590Z,4.63
2018-08-06T11:24:42.868Z,4.17
2018-08-06T11:27:13.099Z,4.87
2018-08-06T11:29:43.486Z,4.60
2018-08-06T11:32:13.921Z,4.90
2018-08-06T11:34:44.821Z,5.10
2018-08-06T11:37:14.774Z,4.63
2018-08-06T11:39:45.116Z,4.53
2018-08-06T11:42:15.787Z,4.17
2018-08-06T11:44:46.261Z,4.63
2018-08-06T11:47:16.179Z,5.20
2018-08-06T11:49:46.635Z,5.07
2018-08-06T11:52:17.056Z,4.57
2018-08-06T11:54:47.615Z,4.23
2018-08-06T11:57:17.832Z,4.10
2018-08-06T11:59:48.640Z,4.53
2018-08-06T12:02:18.732Z,4.60
2018-08-06T12:04:49.116Z,3.93
2018-08-06T12:07:19.440Z,4.20
2018-08-06T12:09:49.688Z,4.43
2018-08-06T12:12:20.355Z,4.27
2018-08-06T12:14:51.121Z,4.40
2018-08-06T12:17:21.126Z,4.27
2018-08-06T12:19:51.783Z,4.33
2018-08-06T12:22:22.109Z,4.60
2018-08-06T12:24:52.447Z,5.30
2018-08-06T12:27:22.519Z,3.90
2018-08-06T12:29:52.560Z,5.63
2018-08-06T12:32:22.961Z,5.60
2018-08-06T12:34:53.426Z,4.80
2018-08-06T12:37:23.827Z,4.50
2018-08-06T12:39:54.084Z,4.43
2018-08-06T12:42:24.851Z,4.20
2018-08-06T12:44:54.972Z,4.27
2018-08-06T12:47:24.840Z,4.37
2018-08-06T12:49:55.248Z,4.80
2018-08-06T12:52:25.217Z,4.67
2018-08-06T12:54:55.512Z,4.83
2018-08-06T12:57:25.775Z,4.80
2018-08-06T12:59:56.353Z,4.60
2018-08-06T13:02:26.379Z,4.80
2018-08-06T13:04:56.818Z,5.03
2018-08-06T13:07:26.912Z,4.20
2018-08-06T13:09:57.748Z,4.17
2018-08-06T13:12:27.912Z,4.03
2018-08-06T13:14:58.040Z,4.80
2018-08-06T13:17:28.519Z,4.47
2018-08-06T13:19:58.424Z,4.70
2018-08-06T13:22:28.289Z,4.30
2018-08-06T13:24:58.310Z,4.37
2018-08-06T13:27:28.524Z,4.63
2018-08-06T13:29:58.517Z,3.97
2018-08-06T13:32:29.133Z,4.00
2018-08-06T13:34:59.366Z,4.33
2018-08-06T13:37:29.563Z,3.70
2018-08-06T13:39:59.931Z,4.17
2018-08-06T13:42:30.665Z,4.30
2018-08-06T13:45:00.785Z,3.97
2018-08-06T13:47:31.313Z,4.17
2018-08-06T13:50:01.583Z,4.50
2018-08-06T13:52:31.688Z,4.17
2018-08-06T13:55:01.718Z,4.03
2018-08-06T13:57:31.959Z,3.97
2018-08-06T14:00:01.871Z,4.77
2018-08-06T14:02:32.054Z,4.00
2018-08-06T14:05:01.920Z,4.33
2018-08-06T14:07:32.704Z,4.17
2018-08-06T14:10:03.066Z,4.30
2018-08-06T14:12:33.405Z,4.73
2018-08-06T14:15:03.376Z,4.40
2018-08-06T14:17:34.055Z,4.03
2018-08-06T14:20:04.452Z,4.03
2018-08-06T14:22:35.055Z,4.13
2018-08-06T14:25:05.392Z,4.60
2018-08-06T14:27:35.391Z,4.47
2018-08-06T14:30:07.142Z,4.20
2018-08-06T14:32:37.633Z,4.30
2018-08-06T14:35:08.296Z,4.30
2018-08-06T14:37:38.565Z,4.40
2018-08-06T14:40:11.014Z,4.50
2018-08-06T14:42:41.337Z,4.43
2018-08-06T14:45:11.991Z,4.43
2018-08-06T14:47:42.395Z,4.53
2018-08-06T14:50:14.107Z,4.47
2018-08-06T14:52:44.427Z,4.30
2018-08-06T14:55:14.451Z,4.53
2018-08-06T14:57:45.295Z,4.47
2018-08-06T15:00:23.547Z,4.60
2018-08-06T15:02:54.457Z,4.57
2018-08-06T15:05:25.874Z,4.43
2018-08-06T15:07:56.139Z,4.23
2018-08-06T15:10:26.728Z,4.80
2018-08-06T15:12:57.044Z,4.67
2018-08-06T15:15:27.802Z,4.83
2018-08-06T15:17:58.400Z,4.70
2018-08-06T15:20:28.831Z,4.83
2018-08-06T15:22:58.711Z,4.80
2018-08-06T15:25:29.110Z,4.37
2018-08-06T15:27:58.965Z,5.40
2018-08-06T15:30:29.853Z,4.97
2018-08-06T15:33:00.021Z,4.80
2018-08-06T15:35:30.139Z,5.10
2018-08-06T15:38:00.577Z,4.77
2018-08-06T15:40:30.454Z,5.33
2018-08-06T15:43:00.809Z,4.50
2018-08-06T15:45:30.760Z,4.70
2018-08-06T15:48:00.833Z,5.03
2018-08-06T15:50:30.809Z,5.07
2018-08-06T15:53:00.928Z,5.70
2018-08-06T15:55:31.065Z,4.87
2018-08-06T15:58:01.689Z,5.27
2018-08-06T16:00:31.605Z,5.40
2018-08-06T16:03:01.996Z,5.90
2018-08-06T16:05:32.424Z,5.63
2018-08-06T16:08:03.076Z,7.10
2018-08-06T16:10:32.900Z,5.77
2018-08-06T16:13:02.869Z,4.97
2018-08-06T16:15:33.721Z,5.80
2018-08-06T16:18:04.164Z,5.60
2018-08-06T16:20:35.098Z,6.07
2018-08-06T16:23:05.369Z,5.00
2018-08-06T16:25:36.048Z,5.60
2018-08-06T16:28:06.641Z,5.60
2018-08-06T16:30:37.423Z,5.90
2018-08-06T16:33:08.711Z,5.77
2018-08-06T16:35:39.100Z,5.30
2018-08-06T16:38:09.326Z,5.70
2018-08-06T16:40:39.172Z,5.67
2018-08-06T16:43:09.584Z,5.10
2018-08-06T16:45:39.475Z,5.20
2018-08-06T16:48:09.623Z,5.73
2018-08-06T16:50:39.503Z,5.10
2018-08-06T16:53:09.728Z,4.80
2018-08-06T16:55:39.773Z,5.30
2018-08-06T16:58:09.757Z,5.37
2018-08-06T17:00:39.727Z,9.57
2018-08-06T17:03:10.136Z,6.53
2018-08-06T17:05:40.375Z,5.73
2018-08-06T17:08:10.492Z,6.03
2018-08-06T17:10:40.392Z,8.90
2018-08-06T17:13:10.400Z,11.07
2018-08-06T17:15:40.377Z,5.87
2018-08-06T17:18:10.725Z,5.67
2018-08-06T17:20:40.571Z,5.17
2018-08-06T17:23:10.568Z,13.13
2018-08-06T17:25:40.584Z,6.33
2018-08-06T17:28:11.003Z,5.47
2018-08-06T17:30:40.867Z,7.83
2018-08-06T17:33:11.073Z,6.07
2018-08-06T17:35:41.156Z,7.63
2018-08-06T17:38:11.304Z,6.70
2018-08-06T17:40:41.311Z,8.13
2018-08-06T17:43:11.532Z,8.53
2018-08-06T17:45:41.827Z,5.70
2018-08-06T17:48:11.872Z,5.77
2018-08-06T17:50:41.735Z,6.43
2018-08-06T17:53:11.853Z,5.90
2018-08-06T17:55:41.814Z,5.83
2018-08-06T17:58:12.232Z,6.50
2018-08-06T18:00:42.071Z,6.23
2018-08-06T18:03:11.977Z,6.37
2018-08-06T18:05:42.129Z,6.13
2018-08-06T18:08:12.290Z,6.20
2018-08-06T18:10:42.608Z,5.80
2018-08-06T18:13:12.819Z,6.20
2018-08-06T18:15:42.900Z,6.50
2018-08-06T18:18:13.220Z,6.40
2018-08-06T18:20:43.188Z,7.20
2018-08-06T18:23:13.532Z,6.27
2018-08-06T18:25:43.574Z,6.37
2018-08-06T18:28:13.753Z,6.10
2018-08-06T18:30:43.607Z,7.73
2018-08-06T18:33:13.900Z,6.80
2018-08-06T18:35:43.881Z,6.87
2018-08-06T18:38:14.165Z,6.70
2018-08-06T18:40:44.607Z,7.40
2018-08-06T18:43:15.217Z,7.40
2018-08-06T18:45:45.540Z,7.57
2018-08-06T18:48:15.409Z,8.07
2018-08-06T18:50:45.399Z,14.27
2018-08-06T18:53:15.647Z,8.63
2018-08-06T18:55:45.755Z,9.07
2018-08-06T18:58:15.599Z,8.30
2018-08-06T19:00:45.624Z,8.50
2018-08-06T19:03:15.769Z,8.77
2018-08-06T19:05:45.628Z,8.90
2018-08-06T19:08:15.664Z,8.73
2018-08-06T19:10:45.531Z,10.17
2018-08-06T19:13:20.850Z,8.93
2018-08-06T19:15:50.742Z,9.07
2018-08-06T19:18:25.912Z,9.80
2018-08-06T19:20:56.264Z,9.03
2018-08-06T19:23:26.385Z,9.37
2018-08-06T19:25:56.387Z,9.50
2018-08-06T19:28:26.681Z,9.50
2018-08-06T19:31:01.548Z,9.73
2018-08-06T19:33:31.620Z,10.23
2018-08-06T19:36:01.632Z,10.40
2018-08-06T19:38:31.870Z,8.80
2018-08-06T19:41:02.088Z,9.00
2018-08-06T19:43:38.490Z,9.50
2018-08-06T19:46:08.969Z,9.40
2018-08-06T19:48:39.080Z,9.70
2018-08-06T19:51:08.984Z,9.53
2018-08-06T19:53:39.364Z,9.37
2018-08-06T19:56:15.287Z,9.23
2018-08-06T19:58:45.900Z,10.43
2018-08-06T20:01:15.910Z,10.63
2018-08-06T20:03:46.246Z,9.70
2018-08-06T20:06:16.259Z,9.77
2018-08-06T20:08:46.594Z,10.23
2018-08-06T20:11:16.695Z,9.67
2018-08-06T20:13:46.911Z,9.90
2018-08-06T20:16:16.941Z,9.73
2018-08-06T20:18:47.005Z,11.13
2018-08-06T20:21:17.347Z,11.50
2018-08-06T20:23:47.617Z,10.50
2018-08-06T20:26:17.830Z,9.83
2018-08-06T20:28:47.868Z,10.07
2018-08-06T20:31:17.848Z,9.90
2018-08-06T20:33:49.008Z,10.07
2018-08-06T20:36:19.394Z,9.87
2018-08-06T20:38:49.447Z,10.20
2018-08-06T20:41:19.507Z,10.07
2018-08-06T20:43:50.115Z,9.70
2018-08-06T20:46:20.635Z,10.37
2018-08-06T20:48:50.592Z,11.40
2018-08-06T20:51:21.282Z,14.33
2018-08-06T20:53:51.159Z,9.13
2018-08-06T20:56:21.436Z,10.97
2018-08-06T20:58:51.629Z,11.10
2018-08-06T21:01:21.784Z,12.40
2018-08-06T21:03:51.663Z,10.07
2018-08-06T21:06:21.785Z,9.37
2018-08-06T21:08:52.083Z,9.70
2018-08-06T21:11:21.947Z,8.73
2018-08-06T21:13:52.104Z,8.83
2018-08-06T21:16:22.424Z,9.70
2018-08-06T21:18:52.904Z,9.97
2018-08-06T21:21:23.384Z,9.70
2018-08-06T21:23:53.392Z,10.20
2018-08-06T21:26:23.431Z,9.43
2018-08-06T21:28:53.450Z,10.00
2018-08-06T21:31:23.500Z,10.00
2018-08-06T21:33:54.027Z,10.80
2018-08-06T21:36:24.315Z,11.10
2018-08-06T21:38:54.599Z,11.60
2018-08-06T21:41:24.668Z,11.77
2018-08-06T21:43:55.347Z,15.47
2018-08-06T21:46:25.548Z,17.10
2018-08-06T21:48:55.475Z,16.00
2018-08-06T21:51:25.731Z,17.23
2018-08-06T21:53:55.783Z,18.30
2018-08-06T21:56:26.272Z,18.03
2018-08-06T21:58:56.676Z,18.50
2018-08-06T22:01:27.007Z,19.27
2018-08-06T22:03:57.032Z,17.93
2018-08-06T22:06:26.984Z,17.30
2018-08-06T22:08:56.972Z,16.53
2018-08-06T22:11:26.882Z,16.77
2018-08-06T22:13:56.908Z,17.47
2018-08-06T22:16:26.996Z,17.90
2018-08-06T22:18:57.313Z,18.43
2018-08-06T22:21:27.281Z,18.00
2018-08-06T22:23:57.291Z,21.30
2018-08-06T22:26:27.214Z,22.30
2018-08-06T22:28:57.359Z,23.80
2018-08-06T22:31:27.327Z,26.43
2018-08-06T22:33:57.348Z,24.60
2018-08-06T22:36:27.557Z,21.77
2018-08-06T22:38:57.888Z,20.80
2018-08-06T22:41:27.967Z,19.80
2018-08-06T22:43:57.839Z,20.53
2018-08-06T22:46:27.859Z,19.53
2018-08-06T22:48:57.888Z,18.90
2018-08-06T22:51:28.147Z,18.73
2018-08-06T22:53:58.115Z,18.87
2018-08-06T22:56:27.994Z,19.00
2018-08-06T22:58:57.983Z,17.80
2018-08-06T23:01:27.969Z,18.13
2018-08-06T23:03:57.964Z,15.93
2018-08-06T23:06:27.932Z,15.50
2018-08-06T23:08:57.902Z,14.03
2018-08-06T23:11:28.280Z,10.77
2018-08-06T23:13:58.269Z,10.53
2018-08-06T23:16:28.791Z,10.67
2018-08-06T23:18:58.792Z,11.07
2018-08-06T23:21:28.947Z,11.20
2018-08-06T23:23:59.029Z,10.57
2018-08-06T23:26:29.340Z,10.97
2018-08-06T23:28:59.489Z,11.37
2018-08-06T23:31:30.073Z,11.53
2018-08-06T23:34:00.088Z,12.17
2018-08-06T23:36:30.442Z,12.20
2018-08-06T23:39:00.688Z,12.60
2018-08-06T23:41:30.676Z,12.63
2018-08-06T23:44:01.204Z,13.13
2018-08-06T23:46:31.108Z,13.63
2018-08-06T23:49:01.678Z,12.50
2018-08-06T23:51:31.886Z,13.53
2018-08-06T23:54:02.108Z,14.20
2018-08-06T23:56:32.440Z,13.40
2018-08-06T23:59:03.144Z,13.30
